sensor_id;sensor_type;location;lat;lon;timestamp;temperature;humidity
53653;DHT22;39553;52.954;5.932;2023-01-16T00:01:14;3.50;99.90
53653;DHT22;39553;52.954;5.932;2023-01-16T00:03:40;3.40;99.90
53653;DHT22;39553;52.954;5.932;2023-01-16T00:06:06;3.40;99.90
53653;DHT22;39553;52.954;5.932;2023-01-16T00:08:32;3.40;99.90
53653;DHT22;39553;52.954;5.932;2023-01-16T00:10:57;3.40;99.90
53653;DHT22;39553;52.954;5.932;2023-01-16T00:13:23;3.40;99.90
53653;DHT22;39553;52.954;5.932;2023-01-16T00:15:50;3.50;99.90
53653;DHT22;39553;52.954;5.932;2023-01-16T00:18:17;3.50;99.90
53653;DHT22;39553;52.954;5.932;2023-01-16T00:20:43;3.50;99.90
53653;DHT22;39553;52.954;5.932;2023-01-16T00:23:12;3.50;99.90
53653;DHT22;39553;52.954;5.932;2023-01-16T00:25:42;3.50;99.90
53653;DHT22;39553;52.954;5.932;2023-01-16T00:28:12;3.50;99.90
53653;DHT22;39553;52.954;5.932;2023-01-16T00:30:38;4.10;99.90
53653;DHT22;39553;52.954;5.932;2023-01-16T00:33:04;3.60;99.90
53653;DHT22;39553;52.954;5.932;2023-01-16T00:35:30;3.40;99.90
53653;DHT22;39553;52.954;5.932;2023-01-16T00:37:56;4.10;99.90
53653;DHT22;39553;52.954;5.932;2023-01-16T00:40:22;3.40;99.90
53653;DHT22;39553;52.954;5.932;2023-01-16T00:42:48;3.40;99.90
53653;DHT22;39553;52.954;5.932;2023-01-16T00:45:14;3.40;99.90
53653;DHT22;39553;52.954;5.932;2023-01-16T00:47:40;3.90;99.90
53653;DHT22;39553;52.954;5.932;2023-01-16T00:50:06;3.40;99.90
53653;DHT22;39553;52.954;5.932;2023-01-16T00:52:31;3.40;99.90
53653;DHT22;39553;52.954;5.932;2023-01-16T00:54:57;3.40;99.90
53653;DHT22;39553;52.954;5.932;2023-01-16T00:57:23;4.10;99.90
53653;DHT22;39553;52.954;5.932;2023-01-16T00:59:49;3.40;99.90
53653;DHT22;39553;52.954;5.932;2023-01-16T01:02:14;3.40;99.90
53653;DHT22;39553;52.954;5.932;2023-01-16T01:04:41;3.40;99.90
53653;DHT22;39553;52.954;5.932;2023-01-16T01:07:07;3.30;99.90
53653;DHT22;39553;52.954;5.932;2023-01-16T01:09:33;3.90;99.90
53653;DHT22;39553;52.954;5.932;2023-01-16T01:11:59;3.30;99.90
53653;DHT22;39553;52.954;5.932;2023-01-16T01:14:26;3.30;99.90
53653;DHT22;39553;52.954;5.932;2023-01-16T01:16:52;3.20;99.90
53653;DHT22;39553;52.954;5.932;2023-01-16T01:19:19;3.10;99.90
53653;DHT22;39553;52.954;5.932;2023-01-16T01:21:45;3.10;99.90
53653;DHT22;39553;52.954;5.932;2023-01-16T01:24:11;3.90;99.90
53653;DHT22;39553;52.954;5.932;2023-01-16T01:26:37;3.00;99.90
53653;DHT22;39553;52.954;5.932;2023-01-16T01:29:03;2.90;99.90
53653;DHT22;39553;52.954;5.932;2023-01-16T01:31:29;2.90;99.90
53653;DHT22;39553;52.954;5.932;2023-01-16T01:33:57;2.90;99.90
53653;DHT22;39553;52.954;5.932;2023-01-16T01:36:22;2.90;99.90
53653;DHT22;39553;52.954;5.932;2023-01-16T01:38:48;4.10;99.90
53653;DHT22;39553;52.954;5.932;2023-01-16T01:41:16;2.80;99.90
53653;DHT22;39553;52.954;5.932;2023-01-16T01:43:51;2.80;99.90
53653;DHT22;39553;52.954;5.932;2023-01-16T01:46:27;2.70;99.90
53653;DHT22;39553;52.954;5.932;2023-01-16T01:48:58;2.60;99.90
53653;DHT22;39553;52.954;5.932;2023-01-16T01:51:38;2.60;99.90
53653;DHT22;39553;52.954;5.932;2023-01-16T01:54:10;2.50;99.90
53653;DHT22;39553;52.954;5.932;2023-01-16T01:56:57;2.40;99.90
53653;DHT22;39553;52.954;5.932;2023-01-16T01:59:28;2.40;99.90
53653;DHT22;39553;52.954;5.932;2023-01-16T02:01:55;2.40;99.90
53653;DHT22;39553;52.954;5.932;2023-01-16T02:04:29;2.40;99.90
53653;DHT22;39553;52.954;5.932;2023-01-16T02:06:59;2.60;99.90
53653;DHT22;39553;52.954;5.932;2023-01-16T02:09:27;2.40;99.90
53653;DHT22;39553;52.954;5.932;2023-01-16T02:11:58;2.80;99.90
53653;DHT22;39553;52.954;5.932;2023-01-16T02:14:28;2.60;99.90
53653;DHT22;39553;52.954;5.932;2023-01-16T02:17:04;2.60;99.90
53653;DHT22;39553;52.954;5.932;2023-01-16T02:20:03;2.70;99.90
53653;DHT22;39553;52.954;5.932;2023-01-16T02:25:27;2.70;99.90
53653;DHT22;39553;52.954;5.932;2023-01-16T02:28:34;2.70;99.90
53653;DHT22;39553;52.954;5.932;2023-01-16T02:36:31;2.90;99.90
53653;DHT22;39553;52.954;5.932;2023-01-16T02:47:30;2.90;99.90
53653;DHT22;39553;52.954;5.932;2023-01-16T02:55:01;3.20;99.90
53653;DHT22;39553;52.954;5.932;2023-01-16T02:57:35;3.10;99.90
53653;DHT22;39553;52.954;5.932;2023-01-16T03:00:05;3.20;99.90
53653;DHT22;39553;52.954;5.932;2023-01-16T03:02:31;3.20;99.90
53653;DHT22;39553;52.954;5.932;2023-01-16T03:04:57;3.20;99.90
53653;DHT22;39553;52.954;5.932;2023-01-16T03:07:37;3.30;99.90
53653;DHT22;39553;52.954;5.932;2023-01-16T03:21:13;3.50;99.90
53653;DHT22;39553;52.954;5.932;2023-01-16T03:23:54;3.60;99.90
53653;DHT22;39553;52.954;5.932;2023-01-16T03:29:24;3.60;99.90
53653;DHT22;39553;52.954;5.932;2023-01-16T03:32:11;3.60;99.90
53653;DHT22;39553;52.954;5.932;2023-01-16T03:35:06;3.60;99.90
53653;DHT22;39553;52.954;5.932;2023-01-16T03:37:40;3.60;99.90
53653;DHT22;39553;52.954;5.932;2023-01-16T03:40:10;3.70;99.90
53653;DHT22;39553;52.954;5.932;2023-01-16T03:42:44;3.70;99.90
53653;DHT22;39553;52.954;5.932;2023-01-16T03:45:16;3.70;99.90
53653;DHT22;39553;52.954;5.932;2023-01-16T03:48:01;3.80;99.90
53653;DHT22;39553;52.954;5.932;2023-01-16T03:50:30;3.80;99.90
53653;DHT22;39553;52.954;5.932;2023-01-16T03:53:02;4.00;99.90
53653;DHT22;39553;52.954;5.932;2023-01-16T03:55:41;4.00;99.90
53653;DHT22;39553;52.954;5.932;2023-01-16T03:58:28;3.90;99.90
53653;DHT22;39553;52.954;5.932;2023-01-16T04:03:43;3.90;99.90
53653;DHT22;39553;52.954;5.932;2023-01-16T04:06:17;4.30;99.90
53653;DHT22;39553;52.954;5.932;2023-01-16T04:08:49;4.00;99.90
53653;DHT22;39553;52.954;5.932;2023-01-16T04:11:18;4.40;99.90
53653;DHT22;39553;52.954;5.932;2023-01-16T04:13:46;4.20;99.90
53653;DHT22;39553;52.954;5.932;2023-01-16T04:16:14;4.10;99.90
53653;DHT22;39553;52.954;5.932;2023-01-16T04:18:43;4.40;99.90
53653;DHT22;39553;52.954;5.932;2023-01-16T04:21:10;4.10;99.90
53653;DHT22;39553;52.954;5.932;2023-01-16T04:23:36;4.10;99.90
53653;DHT22;39553;52.954;5.932;2023-01-16T04:26:02;5.50;99.90
53653;DHT22;39553;52.954;5.932;2023-01-16T04:28:28;4.10;99.90
53653;DHT22;39553;52.954;5.932;2023-01-16T04:30:53;4.10;99.90
53653;DHT22;39553;52.954;5.932;2023-01-16T04:33:19;4.10;99.90
53653;DHT22;39553;52.954;5.932;2023-01-16T04:35:45;4.10;99.90
53653;DHT22;39553;52.954;5.932;2023-01-16T04:38:11;4.30;99.90
53653;DHT22;39553;52.954;5.932;2023-01-16T04:40:38;4.10;99.90
53653;DHT22;39553;52.954;5.932;2023-01-16T04:43:03;4.10;99.90
53653;DHT22;39553;52.954;5.932;2023-01-16T04:45:29;5.20;99.90
53653;DHT22;39553;52.954;5.932;2023-01-16T04:47:55;4.00;99.90
53653;DHT22;39553;52.954;5.932;2023-01-16T04:50:21;3.90;99.90
53653;DHT22;39553;52.954;5.932;2023-01-16T04:52:47;3.90;99.90
53653;DHT22;39553;52.954;5.932;2023-01-16T04:55:13;3.80;99.90
53653;DHT22;39553;52.954;5.932;2023-01-16T04:57:39;3.70;99.90
53653;DHT22;39553;52.954;5.932;2023-01-16T05:00:07;3.60;99.90
53653;DHT22;39553;52.954;5.932;2023-01-16T05:02:33;3.50;99.90
53653;DHT22;39553;52.954;5.932;2023-01-16T05:04:58;3.40;99.90
53653;DHT22;39553;52.954;5.932;2023-01-16T05:07:24;3.30;99.90
53653;DHT22;39553;52.954;5.932;2023-01-16T05:09:53;3.30;99.90
53653;DHT22;39553;52.954;5.932;2023-01-16T05:12:19;3.20;99.90
53653;DHT22;39553;52.954;5.932;2023-01-16T05:14:46;3.20;99.90
53653;DHT22;39553;52.954;5.932;2023-01-16T05:17:12;3.50;99.90
53653;DHT22;39553;52.954;5.932;2023-01-16T05:19:38;3.10;99.90
53653;DHT22;39553;52.954;5.932;2023-01-16T05:22:04;3.10;99.90
53653;DHT22;39553;52.954;5.932;2023-01-16T05:24:29;3.10;99.90
53653;DHT22;39553;52.954;5.932;2023-01-16T05:26:55;3.10;99.90
53653;DHT22;39553;52.954;5.932;2023-01-16T05:29:21;3.50;99.90
53653;DHT22;39553;52.954;5.932;2023-01-16T05:31:47;3.10;99.90
53653;DHT22;39553;52.954;5.932;2023-01-16T05:34:12;3.70;99.90
53653;DHT22;39553;52.954;5.932;2023-01-16T05:36:38;3.30;99.90
53653;DHT22;39553;52.954;5.932;2023-01-16T05:39:04;3.30;99.90
53653;DHT22;39553;52.954;5.932;2023-01-16T05:41:30;3.30;99.90
53653;DHT22;39553;52.954;5.932;2023-01-16T05:43:55;3.40;99.90
53653;DHT22;39553;52.954;5.932;2023-01-16T05:46:21;3.40;99.90
53653;DHT22;39553;52.954;5.932;2023-01-16T05:48:47;3.40;99.90
53653;DHT22;39553;52.954;5.932;2023-01-16T05:51:12;3.50;99.90
53653;DHT22;39553;52.954;5.932;2023-01-16T05:53:38;3.40;99.90
53653;DHT22;39553;52.954;5.932;2023-01-16T05:56:11;3.50;99.90
53653;DHT22;39553;52.954;5.932;2023-01-16T05:58:38;3.40;99.90
53653;DHT22;39553;52.954;5.932;2023-01-16T06:01:06;3.40;99.90
53653;DHT22;39553;52.954;5.932;2023-01-16T06:03:32;3.30;99.90
53653;DHT22;39553;52.954;5.932;2023-01-16T06:05:58;3.30;99.90
53653;DHT22;39553;52.954;5.932;2023-01-16T06:08:27;3.30;99.90
53653;DHT22;39553;52.954;5.932;2023-01-16T06:10:53;3.10;99.90
53653;DHT22;39553;52.954;5.932;2023-01-16T06:13:20;3.20;99.90
53653;DHT22;39553;52.954;5.932;2023-01-16T06:15:45;3.10;99.90
53653;DHT22;39553;52.954;5.932;2023-01-16T06:18:11;3.10;99.90
53653;DHT22;39553;52.954;5.932;2023-01-16T06:20:39;3.10;99.90
53653;DHT22;39553;52.954;5.932;2023-01-16T06:23:05;4.00;99.90
53653;DHT22;39553;52.954;5.932;2023-01-16T06:25:31;4.10;99.90
53653;DHT22;39553;52.954;5.932;2023-01-16T06:27:57;3.10;99.90
53653;DHT22;39553;52.954;5.932;2023-01-16T06:30:23;3.10;99.90
53653;DHT22;39553;52.954;5.932;2023-01-16T06:32:49;3.10;99.90
53653;DHT22;39553;52.954;5.932;2023-01-16T06:35:16;3.10;99.90
53653;DHT22;39553;52.954;5.932;2023-01-16T06:37:41;3.10;99.90
53653;DHT22;39553;52.954;5.932;2023-01-16T06:40:08;3.10;99.90
53653;DHT22;39553;52.954;5.932;2023-01-16T06:42:34;3.10;99.90
53653;DHT22;39553;52.954;5.932;2023-01-16T06:45:00;3.20;99.90
53653;DHT22;39553;52.954;5.932;2023-01-16T06:47:26;3.20;99.90
53653;DHT22;39553;52.954;5.932;2023-01-16T06:49:53;3.20;99.90
53653;DHT22;39553;52.954;5.932;2023-01-16T06:52:19;3.20;99.90
53653;DHT22;39553;52.954;5.932;2023-01-16T06:54:44;3.20;99.90
53653;DHT22;39553;52.954;5.932;2023-01-16T06:57:10;3.20;99.90
53653;DHT22;39553;52.954;5.932;2023-01-16T06:59:36;3.20;99.90
53653;DHT22;39553;52.954;5.932;2023-01-16T07:02:02;3.20;99.90
53653;DHT22;39553;52.954;5.932;2023-01-16T07:04:27;3.10;99.90
53653;DHT22;39553;52.954;5.932;2023-01-16T07:06:53;3.10;99.90
53653;DHT22;39553;52.954;5.932;2023-01-16T07:09:19;3.00;99.90
53653;DHT22;39553;52.954;5.932;2023-01-16T07:11:47;3.00;99.90
53653;DHT22;39553;52.954;5.932;2023-01-16T07:14:13;3.50;99.90
53653;DHT22;39553;52.954;5.932;2023-01-16T07:16:57;3.00;99.90
53653;DHT22;39553;52.954;5.932;2023-01-16T07:19:41;3.00;99.90
53653;DHT22;39553;52.954;5.932;2023-01-16T07:22:25;3.00;99.90
53653;DHT22;39553;52.954;5.932;2023-01-16T07:25:10;3.60;99.90
53653;DHT22;39553;52.954;5.932;2023-01-16T07:27:37;3.00;99.90
53653;DHT22;39553;52.954;5.932;2023-01-16T07:30:03;3.90;99.90
53653;DHT22;39553;52.954;5.932;2023-01-16T07:32:29;3.00;99.90
53653;DHT22;39553;52.954;5.932;2023-01-16T07:34:55;3.10;99.90
53653;DHT22;39553;52.954;5.932;2023-01-16T07:37:20;3.20;99.90
53653;DHT22;39553;52.954;5.932;2023-01-16T07:39:46;3.00;99.90
53653;DHT22;39553;52.954;5.932;2023-01-16T07:42:12;3.00;99.90
53653;DHT22;39553;52.954;5.932;2023-01-16T07:44:38;3.00;99.90
53653;DHT22;39553;52.954;5.932;2023-01-16T07:47:03;3.00;99.90
53653;DHT22;39553;52.954;5.932;2023-01-16T07:49:29;3.00;99.90
53653;DHT22;39553;52.954;5.932;2023-01-16T07:51:55;3.00;99.90
53653;DHT22;39553;52.954;5.932;2023-01-16T07:54:20;3.00;99.90
53653;DHT22;39553;52.954;5.932;2023-01-16T07:56:49;3.00;99.90
53653;DHT22;39553;52.954;5.932;2023-01-16T07:59:15;3.00;99.90
53653;DHT22;39553;52.954;5.932;2023-01-16T08:01:40;3.00;99.90
53653;DHT22;39553;52.954;5.932;2023-01-16T08:04:08;3.00;99.90
53653;DHT22;39553;52.954;5.932;2023-01-16T08:06:33;3.10;99.90
53653;DHT22;39553;52.954;5.932;2023-01-16T08:09:00;3.10;99.90
53653;DHT22;39553;52.954;5.932;2023-01-16T08:11:25;3.10;99.90
53653;DHT22;39553;52.954;5.932;2023-01-16T08:14:02;3.10;99.90
53653;DHT22;39553;52.954;5.932;2023-01-16T08:16:28;3.20;99.90
53653;DHT22;39553;52.954;5.932;2023-01-16T08:18:54;3.20;99.90
53653;DHT22;39553;52.954;5.932;2023-01-16T08:21:20;3.20;99.90
53653;DHT22;39553;52.954;5.932;2023-01-16T08:23:46;3.30;99.90
53653;DHT22;39553;52.954;5.932;2023-01-16T08:26:12;3.30;99.90
53653;DHT22;39553;52.954;5.932;2023-01-16T08:28:41;3.30;99.90
53653;DHT22;39553;52.954;5.932;2023-01-16T08:31:09;3.80;99.90
53653;DHT22;39553;52.954;5.932;2023-01-16T08:33:40;3.50;99.90
53653;DHT22;39553;52.954;5.932;2023-01-16T08:36:08;3.50;99.90
53653;DHT22;39553;52.954;5.932;2023-01-16T08:38:34;3.50;99.90
53653;DHT22;39553;52.954;5.932;2023-01-16T08:41:00;3.50;99.90
53653;DHT22;39553;52.954;5.932;2023-01-16T08:43:26;3.50;99.90
53653;DHT22;39553;52.954;5.932;2023-01-16T08:49:02;3.50;99.90
53653;DHT22;39553;52.954;5.932;2023-01-16T08:51:47;3.50;99.90
53653;DHT22;39553;52.954;5.932;2023-01-16T08:54:13;3.50;99.90
53653;DHT22;39553;52.954;5.932;2023-01-16T08:56:38;3.50;99.90
53653;DHT22;39553;52.954;5.932;2023-01-16T08:59:09;3.60;99.90
53653;DHT22;39553;52.954;5.932;2023-01-16T09:01:36;4.20;99.90
53653;DHT22;39553;52.954;5.932;2023-01-16T09:04:02;3.60;99.90
53653;DHT22;39553;52.954;5.932;2023-01-16T09:06:29;3.80;99.90
53653;DHT22;39553;52.954;5.932;2023-01-16T09:08:55;3.60;99.90
53653;DHT22;39553;52.954;5.932;2023-01-16T09:11:21;4.10;99.90
53653;DHT22;39553;52.954;5.932;2023-01-16T09:14:05;3.70;99.90
53653;DHT22;39553;52.954;5.932;2023-01-16T09:16:31;3.70;99.90
53653;DHT22;39553;52.954;5.932;2023-01-16T09:18:57;3.70;99.90
53653;DHT22;39553;52.954;5.932;2023-01-16T09:21:22;3.70;99.90
53653;DHT22;39553;52.954;5.932;2023-01-16T09:23:51;4.60;99.90
53653;DHT22;39553;52.954;5.932;2023-01-16T09:26:17;5.60;99.90
53653;DHT22;39553;52.954;5.932;2023-01-16T09:28:44;3.80;99.90
53653;DHT22;39553;52.954;5.932;2023-01-16T09:31:10;3.70;99.90
53653;DHT22;39553;52.954;5.932;2023-01-16T09:33:36;3.70;99.90
53653;DHT22;39553;52.954;5.932;2023-01-16T09:36:03;3.90;99.90
53653;DHT22;39553;52.954;5.932;2023-01-16T09:38:29;3.80;99.90
53653;DHT22;39553;52.954;5.932;2023-01-16T09:40:57;4.50;99.90
53653;DHT22;39553;52.954;5.932;2023-01-16T09:43:40;3.80;99.90
53653;DHT22;39553;52.954;5.932;2023-01-16T09:48:54;3.70;99.90
53653;DHT22;39553;52.954;5.932;2023-01-16T09:51:31;3.70;99.90
53653;DHT22;39553;52.954;5.932;2023-01-16T09:54:05;3.70;99.90
53653;DHT22;39553;52.954;5.932;2023-01-16T09:56:57;3.70;99.90
53653;DHT22;39553;52.954;5.932;2023-01-16T09:59:50;3.90;99.90
53653;DHT22;39553;52.954;5.932;2023-01-16T10:02:27;3.70;99.90
53653;DHT22;39553;52.954;5.932;2023-01-16T10:04:55;3.70;99.90
53653;DHT22;39553;52.954;5.932;2023-01-16T10:15:59;3.70;99.90
53653;DHT22;39553;52.954;5.932;2023-01-16T10:18:51;3.70;99.90
53653;DHT22;39553;52.954;5.932;2023-01-16T10:34:31;3.40;99.90
53653;DHT22;39553;52.954;5.932;2023-01-16T10:36:59;4.10;99.90
53653;DHT22;39553;52.954;5.932;2023-01-16T10:39:33;3.70;99.90
53653;DHT22;39553;52.954;5.932;2023-01-16T10:42:17;3.20;99.90
53653;DHT22;39553;52.954;5.932;2023-01-16T10:45:22;3.60;99.90
53653;DHT22;39553;52.954;5.932;2023-01-16T10:48:12;3.20;99.90
53653;DHT22;39553;52.954;5.932;2023-01-16T10:50:59;3.80;99.90
53653;DHT22;39553;52.954;5.932;2023-01-16T10:53:26;3.20;99.90
53653;DHT22;39553;52.954;5.932;2023-01-16T10:55:52;3.50;99.90
53653;DHT22;39553;52.954;5.932;2023-01-16T10:58:26;3.20;99.90
53653;DHT22;39553;52.954;5.932;2023-01-16T11:01:17;3.20;99.90
53653;DHT22;39553;52.954;5.932;2023-01-16T11:03:45;4.10;99.90
53653;DHT22;39553;52.954;5.932;2023-01-16T11:08:40;3.10;99.90
53653;DHT22;39553;52.954;5.932;2023-01-16T11:11:06;4.40;99.90
53653;DHT22;39553;52.954;5.932;2023-01-16T11:13:53;3.10;99.90
53653;DHT22;39553;52.954;5.932;2023-01-16T11:16:39;4.70;99.90
53653;DHT22;39553;52.954;5.932;2023-01-16T11:19:25;3.10;99.90
53653;DHT22;39553;52.954;5.932;2023-01-16T11:22:00;3.20;99.90
53653;DHT22;39553;52.954;5.932;2023-01-16T11:24:32;3.10;99.90
53653;DHT22;39553;52.954;5.932;2023-01-16T11:26:59;3.20;99.90
53653;DHT22;39553;52.954;5.932;2023-01-16T11:29:28;4.10;99.90
53653;DHT22;39553;52.954;5.932;2023-01-16T11:32:05;3.10;99.90
53653;DHT22;39553;52.954;5.932;2023-01-16T11:34:32;3.20;99.90
53653;DHT22;39553;52.954;5.932;2023-01-16T11:37:02;3.40;99.90
53653;DHT22;39553;52.954;5.932;2023-01-16T11:39:30;3.20;99.90
53653;DHT22;39553;52.954;5.932;2023-01-16T11:41:59;3.20;99.90
53653;DHT22;39553;52.954;5.932;2023-01-16T11:44:47;3.10;99.90
53653;DHT22;39553;52.954;5.932;2023-01-16T11:47:39;3.20;99.90
53653;DHT22;39553;52.954;5.932;2023-01-16T11:50:26;3.20;99.90
53653;DHT22;39553;52.954;5.932;2023-01-16T11:52:53;4.40;99.90
53653;DHT22;39553;52.954;5.932;2023-01-16T11:55:19;3.70;99.90
53653;DHT22;39553;52.954;5.932;2023-01-16T11:58:05;4.40;99.90
53653;DHT22;39553;52.954;5.932;2023-01-16T12:08:59;3.20;99.90
53653;DHT22;39553;52.954;5.932;2023-01-16T12:14:33;3.20;99.90
53653;DHT22;39553;52.954;5.932;2023-01-16T12:20:20;3.30;99.90
53653;DHT22;39553;52.954;5.932;2023-01-16T12:58:55;3.70;99.90
53653;DHT22;39553;52.954;5.932;2023-01-16T13:01:33;3.70;99.90
53653;DHT22;39553;52.954;5.932;2023-01-16T13:04:05;3.90;99.90
53653;DHT22;39553;52.954;5.932;2023-01-16T13:06:36;3.80;99.90
53653;DHT22;39553;52.954;5.932;2023-01-16T13:09:32;3.90;99.90
53653;DHT22;39553;52.954;5.932;2023-01-16T13:12:29;3.80;99.90
53653;DHT22;39553;52.954;5.932;2023-01-16T13:15:26;4.00;99.90
53653;DHT22;39553;52.954;5.932;2023-01-16T13:18:27;3.90;99.90
53653;DHT22;39553;52.954;5.932;2023-01-16T13:20:59;4.00;99.90
53653;DHT22;39553;52.954;5.932;2023-01-16T13:26:01;3.90;99.90
53653;DHT22;39553;52.954;5.932;2023-01-16T13:29:02;4.00;99.90
53653;DHT22;39553;52.954;5.932;2023-01-16T13:31:48;4.00;99.90
53653;DHT22;39553;52.954;5.932;2023-01-16T13:34:46;4.10;99.90
53653;DHT22;39553;52.954;5.932;2023-01-16T13:40:29;4.00;99.90
53653;DHT22;39553;52.954;5.932;2023-01-16T13:43:06;4.10;99.90
53653;DHT22;39553;52.954;5.932;2023-01-16T13:45:54;4.10;99.90
53653;DHT22;39553;52.954;5.932;2023-01-16T13:48:26;4.10;99.90
53653;DHT22;39553;52.954;5.932;2023-01-16T13:51:13;4.10;99.90
53653;DHT22;39553;52.954;5.932;2023-01-16T13:53:46;4.10;99.90
53653;DHT22;39553;52.954;5.932;2023-01-16T13:56:22;4.00;99.90
53653;DHT22;39553;52.954;5.932;2023-01-16T13:58:54;5.40;99.90
53653;DHT22;39553;52.954;5.932;2023-01-16T14:01:33;4.10;99.90
53653;DHT22;39553;52.954;5.932;2023-01-16T14:04:31;4.10;99.90
53653;DHT22;39553;52.954;5.932;2023-01-16T14:10:38;4.10;99.90
53653;DHT22;39553;52.954;5.932;2023-01-16T14:19:02;4.10;99.90
53653;DHT22;39553;52.954;5.932;2023-01-16T14:21:45;4.20;99.90
53653;DHT22;39553;52.954;5.932;2023-01-16T14:24:39;6.20;99.90
53653;DHT22;39553;52.954;5.932;2023-01-16T14:27:21;4.30;99.90
53653;DHT22;39553;52.954;5.932;2023-01-16T14:32:22;6.00;99.90
53653;DHT22;39553;52.954;5.932;2023-01-16T14:35:03;4.30;99.90
53653;DHT22;39553;52.954;5.932;2023-01-16T14:38:05;4.30;99.90
53653;DHT22;39553;52.954;5.932;2023-01-16T14:40:36;4.20;99.90
53653;DHT22;39553;52.954;5.932;2023-01-16T14:43:32;4.90;99.90
53653;DHT22;39553;52.954;5.932;2023-01-16T14:46:29;4.20;99.90
53653;DHT22;39553;52.954;5.932;2023-01-16T14:49:40;4.20;99.90
53653;DHT22;39553;52.954;5.932;2023-01-16T14:55:49;4.30;99.90
53653;DHT22;39553;52.954;5.932;2023-01-16T14:58:29;4.30;99.90
53653;DHT22;39553;52.954;5.932;2023-01-16T15:00:57;4.40;99.90
53653;DHT22;39553;52.954;5.932;2023-01-16T15:03:45;4.40;99.90
53653;DHT22;39553;52.954;5.932;2023-01-16T15:06:11;4.40;99.90
53653;DHT22;39553;52.954;5.932;2023-01-16T15:08:41;4.40;99.90
53653;DHT22;39553;52.954;5.932;2023-01-16T15:11:30;4.30;99.90
53653;DHT22;39553;52.954;5.932;2023-01-16T15:14:09;4.60;99.90
53653;DHT22;39553;52.954;5.932;2023-01-16T15:20:38;4.40;99.90
53653;DHT22;39553;52.954;5.932;2023-01-16T15:25:58;4.40;99.90
53653;DHT22;39553;52.954;5.932;2023-01-16T15:31:04;4.40;99.90
53653;DHT22;39553;52.954;5.932;2023-01-16T15:33:32;4.30;99.90
53653;DHT22;39553;52.954;5.932;2023-01-16T15:36:21;4.70;99.90
53653;DHT22;39553;52.954;5.932;2023-01-16T15:38:53;4.30;99.90
53653;DHT22;39553;52.954;5.932;2023-01-16T15:41:31;4.30;99.90
53653;DHT22;39553;52.954;5.932;2023-01-16T15:44:27;4.40;99.90
53653;DHT22;39553;52.954;5.932;2023-01-16T15:52:33;4.20;99.90
53653;DHT22;39553;52.954;5.932;2023-01-16T15:55:21;4.40;99.90
53653;DHT22;39553;52.954;5.932;2023-01-16T15:57:56;4.30;99.90
53653;DHT22;39553;52.954;5.932;2023-01-16T16:00:30;4.40;99.90
53653;DHT22;39553;52.954;5.932;2023-01-16T16:03:18;4.40;99.90
53653;DHT22;39553;52.954;5.932;2023-01-16T16:05:56;4.30;99.90
53653;DHT22;39553;52.954;5.932;2023-01-16T16:08:27;4.30;99.90
53653;DHT22;39553;52.954;5.932;2023-01-16T16:10:55;4.20;99.90
53653;DHT22;39553;52.954;5.932;2023-01-16T16:13:40;4.50;99.90
53653;DHT22;39553;52.954;5.932;2023-01-16T16:19:00;4.20;99.90
53653;DHT22;39553;52.954;5.932;2023-01-16T16:21:29;4.20;99.90
53653;DHT22;39553;52.954;5.932;2023-01-16T16:24:09;4.40;99.90
53653;DHT22;39553;52.954;5.932;2023-01-16T16:26:42;4.30;99.90
53653;DHT22;39553;52.954;5.932;2023-01-16T16:29:19;4.30;99.90
53653;DHT22;39553;52.954;5.932;2023-01-16T16:31:46;4.40;99.90
53653;DHT22;39553;52.954;5.932;2023-01-16T16:34:23;4.20;99.90
53653;DHT22;39553;52.954;5.932;2023-01-16T16:36:55;4.20;99.90
53653;DHT22;39553;52.954;5.932;2023-01-16T16:41:59;4.10;99.90
53653;DHT22;39553;52.954;5.932;2023-01-16T16:50:23;4.90;99.90
53653;DHT22;39553;52.954;5.932;2023-01-16T16:52:48;5.80;99.90
53653;DHT22;39553;52.954;5.932;2023-01-16T16:55:37;4.20;99.90
53653;DHT22;39553;52.954;5.932;2023-01-16T16:58:11;4.20;99.90
53653;DHT22;39553;52.954;5.932;2023-01-16T17:00:39;5.10;99.90
53653;DHT22;39553;52.954;5.932;2023-01-16T17:03:25;4.10;99.90
53653;DHT22;39553;52.954;5.932;2023-01-16T17:05:53;4.00;99.90
53653;DHT22;39553;52.954;5.932;2023-01-16T17:08:25;4.10;99.90
53653;DHT22;39553;52.954;5.932;2023-01-16T17:10:54;4.10;99.90
53653;DHT22;39553;52.954;5.932;2023-01-16T17:13:21;4.60;99.90
53653;DHT22;39553;52.954;5.932;2023-01-16T17:15:50;5.10;99.90
53653;DHT22;39553;52.954;5.932;2023-01-16T17:18:18;3.90;99.90
53653;DHT22;39553;52.954;5.932;2023-01-16T17:20:46;5.00;99.90
53653;DHT22;39553;52.954;5.932;2023-01-16T17:23:13;3.90;99.90
53653;DHT22;39553;52.954;5.932;2023-01-16T17:25:40;3.80;99.90
53653;DHT22;39553;52.954;5.932;2023-01-16T17:28:08;3.80;99.90
53653;DHT22;39553;52.954;5.932;2023-01-16T17:30:34;3.80;99.90
53653;DHT22;39553;52.954;5.932;2023-01-16T17:35:38;3.90;99.90
53653;DHT22;39553;52.954;5.932;2023-01-16T17:38:10;3.80;99.90
53653;DHT22;39553;52.954;5.932;2023-01-16T17:40:37;3.90;99.90
53653;DHT22;39553;52.954;5.932;2023-01-16T17:43:03;3.90;99.90
53653;DHT22;39553;52.954;5.932;2023-01-16T17:45:51;3.80;99.90
53653;DHT22;39553;52.954;5.932;2023-01-16T17:48:27;3.70;99.90
53653;DHT22;39553;52.954;5.932;2023-01-16T17:50:54;3.50;99.90
53653;DHT22;39553;52.954;5.932;2023-01-16T17:53:23;4.40;99.90
53653;DHT22;39553;52.954;5.932;2023-01-16T17:55:51;4.30;99.90
53653;DHT22;39553;52.954;5.932;2023-01-16T17:58:38;3.10;99.90
53653;DHT22;39553;52.954;5.932;2023-01-16T18:01:12;3.00;99.90
53653;DHT22;39553;52.954;5.932;2023-01-16T18:03:38;3.80;99.90
53653;DHT22;39553;52.954;5.932;2023-01-16T18:06:08;3.10;99.90
53653;DHT22;39553;52.954;5.932;2023-01-16T18:08:34;4.10;99.90
53653;DHT22;39553;52.954;5.932;2023-01-16T18:11:02;3.20;99.90
53653;DHT22;39553;52.954;5.932;2023-01-16T18:13:50;3.00;99.90
53653;DHT22;39553;52.954;5.932;2023-01-16T18:16:35;4.60;99.90
53653;DHT22;39553;52.954;5.932;2023-01-16T18:19:19;3.10;99.90
53653;DHT22;39553;52.954;5.932;2023-01-16T18:21:45;3.50;99.90
53653;DHT22;39553;52.954;5.932;2023-01-16T18:24:31;4.40;99.90
53653;DHT22;39553;52.954;5.932;2023-01-16T18:26:59;2.80;99.90
53653;DHT22;39553;52.954;5.932;2023-01-16T18:29:25;2.80;99.90
53653;DHT22;39553;52.954;5.932;2023-01-16T18:31:51;3.00;99.90
53653;DHT22;39553;52.954;5.932;2023-01-16T18:34:35;4.50;99.90
53653;DHT22;39553;52.954;5.932;2023-01-16T18:37:01;2.90;99.90
53653;DHT22;39553;52.954;5.932;2023-01-16T18:39:27;2.80;99.90
53653;DHT22;39553;52.954;5.932;2023-01-16T18:42:11;3.90;99.90
53653;DHT22;39553;52.954;5.932;2023-01-16T18:44:55;2.80;99.90
53653;DHT22;39553;52.954;5.932;2023-01-16T18:47:39;2.80;99.90
53653;DHT22;39553;52.954;5.932;2023-01-16T18:50:23;2.70;99.90
53653;DHT22;39553;52.954;5.932;2023-01-16T18:53:12;3.40;99.90
53653;DHT22;39553;52.954;5.932;2023-01-16T18:55:58;3.30;99.90
53653;DHT22;39553;52.954;5.932;2023-01-16T18:58:42;2.50;99.90
53653;DHT22;39553;52.954;5.932;2023-01-16T19:01:26;2.60;99.90
53653;DHT22;39553;52.954;5.932;2023-01-16T19:04:10;2.80;99.90
53653;DHT22;39553;52.954;5.932;2023-01-16T19:06:38;2.50;99.90